Time;durP1;ratioP1;P1;durP2;ratioP2;P2;SDS_P1;SDS_P2;PMS_P1;PMS_P2;Temp;Humidity;BMP_temperature;BMP_pressure;BME280_temperature;BME280_humidity;BME280_pressure;Samples;Min_cycle;Max_cycle;Signal;HPM_P1;HPM_P2
2021/11/11 00:00:14;;;;;;;278.77;86.97;;;;;;;-0.13;100.00;96359.91;1016828;29;20035;-73
2021/11/11 00:00:46;;;;;;;293.76;87.18;;;;;;;-0.14;100.00;96364.25;1022459;28;20019;-75
2021/11/11 00:01:17;;;;;;;299.68;89.74;;;;;;;-0.12;100.00;96348.63;1019404;29;20024;-74
2021/11/11 00:01:47;;;;;;;456.42;109.47;;;;;;;-0.13;100.00;96355.56;1022437;29;20015;-74
2021/11/11 00:02:21;;;;;;;636.25;133.07;;;;;;;-0.14;100.00;96353.13;1025517;28;20054;-75
2021/11/11 00:02:52;;;;;;;230.44;73.44;;;;;;;-0.13;100.00;96349.59;1026887;28;20022;-73
2021/11/11 00:03:23;;;;;;;429.26;109.28;;;;;;;-0.11;100.00;96348.41;1023154;28;20031;-75
2021/11/11 00:03:53;;;;;;;355.42;96.25;;;;;;;-0.03;100.00;96342.38;1026548;28;20027;-74
2021/11/11 00:04:24;;;;;;;435.58;112.20;;;;;;;-0.01;100.00;96342.97;1022906;29;20051;-72
2021/11/11 00:04:56;;;;;;;434.42;113.85;;;;;;;0.01;100.00;96345.41;1022875;29;20023;-73
2021/11/11 00:05:27;;;;;;;523.56;128.08;;;;;;;-0.01;100.00;96336.03;1020541;28;20024;-75
2021/11/11 00:05:57;;;;;;;394.60;104.10;;;;;;;0.05;100.00;96347.44;1014890;29;20576;-74
2021/11/11 00:06:29;;;;;;;429.33;104.60;;;;;;;-0.03;100.00;96337.22;1015017;29;20024;-74
2021/11/11 00:07:01;;;;;;;461.90;110.94;;;;;;;-0.03;100.00;96340.59;1016806;29;20281;-75
2021/11/11 00:07:32;;;;;;;489.20;109.88;;;;;;;0.02;100.00;96345.19;1018892;29;20034;-73
2021/11/11 00:08:03;;;;;;;354.68;91.90;;;;;;;0.01;100.00;96346.19;1014193;29;20066;-75
2021/11/11 00:08:34;;;;;;;242.57;79.18;;;;;;;-0.01;100.00;96342.97;1017671;29;20430;-75
2021/11/11 00:09:04;;;;;;;306.10;94.35;;;;;;;-0.03;100.00;96339.81;1025111;28;20126;-74
2021/11/11 00:09:35;;;;;;;381.55;103.97;;;;;;;-0.03;100.00;96334.66;1023525;28;20058;-73
2021/11/11 00:10:07;;;;;;;506.40;120.18;;;;;;;-0.02;100.00;96334.44;1014649;29;20020;-73
2021/11/11 00:10:38;;;;;;;291.96;76.24;;;;;;;-0.09;100.00;96325.03;1014762;29;20052;-74
2021/11/11 00:11:08;;;;;;;539.55;126.40;;;;;;;-0.12;100.00;96320.25;1012336;29;20484;-73
2021/11/11 00:11:39;;;;;;;362.95;92.15;;;;;;;-0.05;100.00;96331.44;1010994;29;20029;-75
2021/11/11 00:12:09;;;;;;;408.08;101.65;;;;;;;-0.25;100.00;96306.19;1010852;29;20488;-75
2021/11/11 00:12:40;;;;;;;378.27;100.25;;;;;;;-0.07;100.00;96346.28;1011065;29;20021;-75
2021/11/11 00:13:10;;;;;;;267.48;83.80;;;;;;;-0.13;100.00;96337.50;1019129;28;20032;-74
2021/11/11 00:13:41;;;;;;;393.02;101.65;;;;;;;-0.10;100.00;96342.31;1026745;28;20011;-73
2021/11/11 00:14:11;;;;;;;397.02;100.90;;;;;;;-0.11;100.00;96337.31;1026605;28;20015;-74
2021/11/11 00:14:42;;;;;;;325.92;89.72;;;;;;;-0.13;100.00;96334.13;1022278;29;20011;-73
2021/11/11 00:15:13;;;;;;;299.22;84.94;;;;;;;-0.13;100.00;96334.13;1015006;29;20064;-75
2021/11/11 00:15:46;;;;;;;304.60;85.74;;;;;;;-0.14;100.00;96333.31;1018924;29;20618;-75
2021/11/11 00:16:17;;;;;;;491.22;115.90;;;;;;;-0.19;100.00;96329.69;1014899;29;20020;-74
2021/11/11 00:16:48;;;;;;;441.88;106.50;;;;;;;-0.24;100.00;96323.25;1015923;29;20431;-72
2021/11/11 00:17:18;;;;;;;424.85;88.60;;;;;;;-0.17;100.00;96338.81;1018764;29;20625;-73
2021/11/11 00:17:49;;;;;;;292.85;74.15;;;;;;;-0.18;100.00;96336.44;1017884;29;20028;-70
2021/11/11 00:18:19;;;;;;;442.42;107.07;;;;;;;-0.19;100.00;96329.69;1018602;29;20027;-73
2021/11/11 00:18:50;;;;;;;462.52;109.75;;;;;;;-0.21;100.00;96329.06;1015090;29;20543;-74
2021/11/11 00:19:20;;;;;;;563.00;124.43;;;;;;;-0.20;100.00;96328.06;1018643;29;20078;-74
2021/11/11 00:19:51;;;;;;;344.20;90.13;;;;;;;-0.24;100.00;96323.25;1024501;28;20483;-73
2021/11/11 00:20:24;;;;;;;556.78;124.25;;;;;;;-0.25;100.00;96320.88;1022405;29;20074;-73
2021/11/11 00:20:55;;;;;;;332.64;96.34;;;;;;;-0.39;100.00;96295.94;1015252;29;20030;-73
2021/11/11 00:21:26;;;;;;;320.92;89.15;;;;;;;-0.22;100.00;96330.03;1016308;29;20380;-74
2021/11/11 00:21:56;;;;;;;282.23;81.05;;;;;;;-0.24;100.00;96322.47;1015926;29;20065;-74
2021/11/11 00:22:27;;;;;;;625.50;132.65;;;;;;;-0.26;100.00;96324.44;1022924;28;20047;-73
2021/11/11 00:22:57;;;;;;;440.35;110.32;;;;;;;-0.33;100.00;96319.22;1022118;28;20098;-72
2021/11/11 00:23:28;;;;;;;281.48;87.75;;;;;;;-0.28;100.00;96326.41;1018678;29;20375;-73
2021/11/11 00:23:58;;;;;;;489.67;121.55;;;;;;;-0.30;100.00;96324.00;1018733;29;20136;-73
2021/11/11 00:24:28;;;;;;;521.72;124.63;;;;;;;-0.35;100.00;96328.88;1018613;29;20079;-73
2021/11/11 00:24:59;;;;;;;212.98;76.90;;;;;;;-0.33;100.00;96336.47;1022381;28;20483;-75
2021/11/11 00:25:30;;;;;;;230.98;79.88;;;;;;;-0.37;100.00;96336.03;1018860;29;20610;-71
2021/11/11 00:26:00;;;;;;;332.40;95.15;;;;;;;-0.37;100.00;96343.75;1010861;29;20117;-74
2021/11/11 00:26:31;;;;;;;325.83;94.50;;;;;;;-0.40;100.00;96333.81;1014257;29;20132;-73
2021/11/11 00:27:01;;;;;;;208.00;73.30;;;;;;;-0.46;100.00;96329.34;1018671;29;20063;-75
2021/11/11 00:27:32;;;;;;;249.63;81.90;;;;;;;-0.44;100.00;96329.94;1018839;29;20105;-74
2021/11/11 00:28:02;;;;;;;207.70;74.85;;;;;;;-0.40;100.00;96333.81;1017988;29;20399;-73
2021/11/11 00:28:33;;;;;;;375.95;96.32;;;;;;;-0.40;100.00;96332.97;1018590;29;20016;-73
2021/11/11 00:29:03;;;;;;;355.92;95.63;;;;;;;-0.37;100.00;96335.19;1014811;29;20028;-74
2021/11/11 00:29:34;;;;;;;434.73;111.45;;;;;;;-0.35;100.00;96335.81;1007092;29;20090;-74
2021/11/11 00:30:05;;;;;;;355.67;98.70;;;;;;;-0.35;100.00;96339.19;1014790;29;20035;-74
2021/11/11 00:30:35;;;;;;;252.54;91.38;;;;;;;-0.41;100.00;96333.97;1010876;29;20036;-75
2021/11/11 00:31:06;;;;;;;281.00;94.00;;;;;;;-0.32;100.00;96349.16;1015119;29;20028;-73
2021/11/11 00:31:37;;;;;;;292.30;93.78;;;;;;;-0.31;100.00;96345.59;1023817;28;20451;-72
2021/11/11 00:32:07;;;;;;;302.95;95.30;;;;;;;-0.29;100.00;96341.06;1022524;28;20031;-72
2021/11/11 00:32:39;;;;;;;354.98;106.57;;;;;;;-0.31;100.00;96339.66;1022770;28;20019;-73
2021/11/11 00:33:09;;;;;;;420.04;117.00;;;;;;;-0.30;100.00;96343.84;1020485;28;20023;-74
2021/11/11 00:33:40;;;;;;;440.33;120.47;;;;;;;-0.34;100.00;96343.38;1014125;29;20025;-73
2021/11/11 00:34:11;;;;;;;486.38;125.68;;;;;;;-0.36;100.00;96345.34;1014108;29;20401;-73
2021/11/11 00:34:43;;;;;;;515.20;129.10;;;;;;;-0.42;100.00;96320.28;1018933;29;20399;-74
2021/11/11 00:35:15;;;;;;;398.40;113.20;;;;;;;-0.39;100.00;96334.59;1013978;29;20040;-73
2021/11/11 00:35:46;;;;;;;413.00;115.76;;;;;;;-0.42;100.00;96328.00;1011514;29;20145;-74
2021/11/11 00:36:17;;;;;;;472.00;117.97;;;;;;;-0.38;100.00;96331.81;1018802;29;20207;-74
2021/11/11 00:36:47;;;;;;;505.73;123.28;;;;;;;-0.41;100.00;96345.06;1014493;29;20068;-74
2021/11/11 00:37:21;;;;;;;501.63;121.72;;;;;;;-0.46;100.00;96337.09;1014765;29;20052;-74
2021/11/11 00:37:52;;;;;;;583.10;130.60;;;;;;;-0.49;100.00;96340.03;1014575;29;20020;-74
2021/11/11 00:38:23;;;;;;;660.26;141.80;;;;;;;-0.55;100.00;96333.00;1024886;28;20027;-73
2021/11/11 00:38:53;;;;;;;588.53;135.68;;;;;;;-0.51;100.00;96336.81;1022508;28;20415;-75
2021/11/11 00:39:24;;;;;;;551.88;128.75;;;;;;;-0.56;100.00;96339.13;1022682;29;20023;-73
2021/11/11 00:39:55;;;;;;;580.67;129.05;;;;;;;-0.62;100.00;96334.69;1014408;29;20080;-73
2021/11/11 00:40:27;;;;;;;501.78;122.70;;;;;;;-0.62;100.00;96322.59;1022713;29;20038;-73
2021/11/11 00:40:58;;;;;;;520.33;122.80;;;;;;;-0.57;100.00;96333.19;1014674;29;20024;-74
2021/11/11 00:41:28;;;;;;;480.13;118.47;;;;;;;-0.56;100.00;96333.97;1010930;29;20173;-72
2021/11/11 00:41:58;;;;;;;546.47;125.57;;;;;;;-0.55;100.00;96338.94;1014914;29;20043;-73
2021/11/11 00:42:29;;;;;;;552.08;121.93;;;;;;;-0.57;100.00;96340.91;1016643;29;20680;-72
2021/11/11 00:42:59;;;;;;;352.02;96.13;;;;;;;-0.57;100.00;96345.25;1017392;29;20024;-75
2021/11/11 00:43:30;;;;;;;406.63;99.28;;;;;;;-0.73;100.00;96323.84;1018315;29;20027;-75
2021/11/11 00:44:00;;;;;;;488.40;112.70;;;;;;;-0.57;100.00;96342.66;1019132;29;20101;-73
2021/11/11 00:44:31;;;;;;;526.78;124.47;;;;;;;-0.60;100.00;96340.47;1020118;29;20023;-73
2021/11/11 00:45:02;;;;;;;500.80;120.55;;;;;;;-0.61;100.00;96337.06;1026098;28;20479;-74
2021/11/11 00:45:33;;;;;;;591.75;127.13;;;;;;;-0.63;100.00;96348.56;1026659;28;20530;-74
2021/11/11 00:46:04;;;;;;;490.04;113.74;;;;;;;-0.63;100.00;96340.81;1023045;29;20020;-75
2021/11/11 00:46:34;;;;;;;491.88;118.43;;;;;;;-0.64;100.00;96339.19;1028695;28;20504;-75
2021/11/11 00:47:05;;;;;;;574.90;121.35;;;;;;;-0.65;100.00;96337.59;1023321;28;20023;-73
2021/11/11 00:47:35;;;;;;;502.38;114.50;;;;;;;-0.63;100.00;96344.19;1020688;29;20019;-74
2021/11/11 00:48:06;;;;;;;408.65;99.43;;;;;;;-0.75;100.00;96323.19;1022998;29;20439;-73
2021/11/11 00:48:36;;;;;;;535.47;122.00;;;;;;;-0.68;100.00;96337.97;1014755;29;20066;-73
2021/11/11 00:49:07;;;;;;;381.42;97.30;;;;;;;-0.71;100.00;96329.59;1011498;29;20064;-74
2021/11/11 00:49:37;;;;;;;530.15;112.90;;;;;;;-0.76;100.00;96329.34;1018748;29;20019;-75
2021/11/11 00:50:08;;;;;;;420.40;99.78;;;;;;;-0.75;100.00;96320.63;1018468;29;20045;-73
2021/11/11 00:50:39;;;;;;;554.83;125.28;;;;;;;-0.68;100.00;96330.22;1019074;29;20026;-75
2021/11/11 00:51:10;;;;;;;524.55;122.22;;;;;;;-0.67;100.00;96332.66;1019107;29;20024;-73
2021/11/11 00:51:40;;;;;;;556.65;116.30;;;;;;;-0.71;100.00;96337.31;1019077;29;20027;-74
2021/11/11 00:52:11;;;;;;;477.23;109.40;;;;;;;-0.76;100.00;96333.69;1018338;29;20419;-74
2021/11/11 00:52:41;;;;;;;541.00;118.45;;;;;;;-0.74;100.00;96331.72;1019134;29;20381;-73
2021/11/11 00:53:12;;;;;;;408.85;102.10;;;;;;;-0.78;100.00;96339.00;1026932;28;20027;-73
2021/11/11 00:53:42;;;;;;;407.42;104.75;;;;;;;-0.78;100.00;96333.84;1022518;28;20023;-75
2021/11/11 00:54:13;;;;;;;342.48;97.28;;;;;;;-0.78;100.00;96339.00;1023395;28;20023;-74
2021/11/11 00:54:43;;;;;;;444.63;110.10;;;;;;;-0.78;100.00;96336.44;1031076;28;20022;-75
2021/11/11 00:55:14;;;;;;;415.85;106.10;;;;;;;-0.84;100.00;96326.03;1022746;28;20082;-73
2021/11/11 00:55:47;;;;;;;355.05;97.07;;;;;;;-0.78;100.00;96339.00;1022921;28;20026;-73
2021/11/11 00:56:18;;;;;;;432.72;109.70;;;;;;;-0.82;100.00;96330.03;1026193;28;20113;-74
2021/11/11 00:56:48;;;;;;;414.75;105.78;;;;;;;-0.82;100.00;96324.88;1026680;28;20039;-74
2021/11/11 00:57:19;;;;;;;403.75;101.13;;;;;;;-0.77;100.00;96332.91;1022532;28;20034;-74
2021/11/11 00:57:49;;;;;;;331.63;96.93;;;;;;;-0.75;100.00;96341.25;1021996;29;20045;-71
2021/11/11 00:58:20;;;;;;;420.90;107.63;;;;;;;-0.75;100.00;96336.09;1015241;29;20020;-73
2021/11/11 00:58:54;;;;;;;307.10;88.35;;;;;;;-0.77;100.00;96330.31;1017660;29;20068;-73
2021/11/11 00:59:24;;;;;;;367.46;98.80;;;;;;;-0.74;100.00;96334.31;1023179;29;20038;-74
2021/11/11 00:59:55;;;;;;;289.48;89.85;;;;;;;-0.73;100.00;96334.16;1023386;28;20452;-75
2021/11/11 01:00:25;;;;;;;393.90;104.33;;;;;;;-0.71;100.00;96336.53;1025526;28;20403;-74
2021/11/11 01:00:56;;;;;;;383.10;106.87;;;;;;;-0.69;100.00;96338.94;1019060;29;20031;-74
2021/11/11 01:01:29;;;;;;;387.37;108.33;;;;;;;-0.68;100.00;96345.69;1015258;29;20053;-75
2021/11/11 01:02:02;;;;;;;259.58;87.64;;;;;;;-0.73;100.00;96329.00;1018724;28;20035;-73
2021/11/11 01:02:35;;;;;;;358.58;102.44;;;;;;;-0.64;100.00;96336.63;1022972;29;20035;-71
2021/11/11 01:03:07;;;;;;;374.72;106.58;;;;;;;-0.72;100.00;96325.44;1026870;28;20031;-74
2021/11/11 01:03:40;;;;;;;248.84;80.28;;;;;;;-0.69;100.00;96326.06;1019852;29;20079;-75
2021/11/11 01:04:11;;;;;;;378.20;100.84;;;;;;;-0.59;100.00;96334.31;1019002;29;20027;-73
2021/11/11 01:04:41;;;;;;;225.75;73.28;;;;;;;-0.61;100.00;96325.97;1023060;29;20090;-74
2021/11/11 01:05:12;;;;;;;271.10;90.75;;;;;;;-0.59;100.00;96318.88;1023517;28;20031;-73
2021/11/11 01:05:42;;;;;;;197.25;78.22;;;;;;;-0.55;100.00;96325.25;1024146;28;20035;-74
2021/11/11 01:06:13;;;;;;;205.50;76.53;;;;;;;-0.52;100.00;96319.75;1026711;28;20026;-74
2021/11/11 01:06:44;;;;;;;298.85;97.45;;;;;;;-0.51;100.00;96318.75;1019193;29;20516;-75
2021/11/11 01:07:15;;;;;;;391.66;110.24;;;;;;;-0.59;100.00;96309.34;1022498;28;20035;-73
2021/11/11 01:07:45;;;;;;;266.55;86.50;;;;;;;-0.58;100.00;96302.41;1022596;29;20034;-76
2021/11/11 01:08:16;;;;;;;212.73;74.10;;;;;;;-0.49;100.00;96315.03;1018776;29;20038;-74
2021/11/11 01:08:49;;;;;;;341.70;98.95;;;;;;;-0.52;100.00;96306.88;1014858;29;20016;-70
2021/11/11 01:09:19;;;;;;;314.16;97.04;;;;;;;-0.48;100.00;96308.09;1014913;29;20082;-73
2021/11/11 01:09:49;;;;;;;276.48;77.00;;;;;;;-0.49;100.00;96316.81;1023056;29;20153;-72
2021/11/11 01:10:20;;;;;;;365.60;94.88;;;;;;;-0.57;100.00;96306.59;1023212;28;20050;-73
2021/11/11 01:10:50;;;;;;;387.15;101.60;;;;;;;-0.52;100.00;96320.53;1027208;28;20083;-75
2021/11/11 01:11:21;;;;;;;347.80;96.88;;;;;;;-0.51;100.00;96311.03;1022710;28;20062;-74
2021/11/11 01:11:52;;;;;;;309.83;89.90;;;;;;;-0.50;100.00;96322.97;1019209;29;20027;-72
2021/11/11 01:12:22;;;;;;;399.40;107.43;;;;;;;-0.50;100.00;96322.97;1019080;29;20443;-74
2021/11/11 01:12:53;;;;;;;261.75;82.72;;;;;;;-0.50;100.00;96323.75;1018205;29;20031;-73
2021/11/11 01:13:23;;;;;;;415.40;102.53;;;;;;;-0.46;100.00;96323.41;1015206;29;20133;-74
2021/11/11 01:13:54;;;;;;;199.40;69.68;;;;;;;-0.46;100.00;96325.97;1018990;29;20060;-73
2021/11/11 01:14:24;;;;;;;432.33;107.78;;;;;;;-0.52;100.00;96319.75;1023330;28;20031;-74
2021/11/11 01:14:54;;;;;;;488.38;117.55;;;;;;;-0.53;100.00;96318.16;1015956;29;20028;-73
2021/11/11 01:15:30;;;;;;;292.23;84.35;;;;;;;-0.47;100.00;96332.88;1019009;29;20034;-73
2021/11/11 01:16:00;;;;;;;364.64;98.72;;;;;;;-0.49;100.00;96327.91;1014512;29;20028;-75
2021/11/11 01:16:31;;;;;;;427.42;110.32;;;;;;;-0.50;100.00;96330.69;1016829;29;20443;-73
2021/11/11 01:17:02;;;;;;;400.15;103.95;;;;;;;-0.71;100.00;96308.19;1015894;29;20043;-73
2021/11/11 01:17:33;;;;;;;368.10;93.62;;;;;;;-0.57;100.00;96322.03;1019162;29;20071;-73
2021/11/11 01:18:04;;;;;;;404.83;100.70;;;;;;;-0.57;100.00;96322.88;1019703;28;20031;-74
2021/11/11 01:18:34;;;;;;;380.27;98.55;;;;;;;-0.50;100.00;96341.00;1019011;29;20426;-74
2021/11/11 01:19:04;;;;;;;467.40;107.72;;;;;;;-0.55;100.00;96336.38;1019449;29;20566;-75
2021/11/11 01:19:35;;;;;;;382.27;104.25;;;;;;;-0.53;100.00;96336.19;1016326;29;20039;-74
2021/11/11 01:20:08;;;;;;;422.55;97.25;;;;;;;-0.55;100.00;96326.06;1019752;28;20059;-72
2021/11/11 01:20:39;;;;;;;433.18;101.22;;;;;;;-0.64;100.00;96318.59;1015252;29;20032;-73
2021/11/11 01:21:09;;;;;;;386.02;94.28;;;;;;;-0.57;100.00;96332.34;1015321;29;20035;-72
2021/11/11 01:21:40;;;;;;;312.67;87.13;;;;;;;-0.62;100.00;96325.16;1022745;28;20103;-73
2021/11/11 01:22:10;;;;;;;461.25;116.15;;;;;;;-0.64;100.00;96336.63;1018582;29;20035;-72
2021/11/11 01:22:41;;;;;;;485.45;119.82;;;;;;;-0.64;100.00;96331.47;1019428;29;20120;-70
2021/11/11 01:23:11;;;;;;;378.00;102.03;;;;;;;-0.72;100.00;96319.47;1018980;29;20525;-74
2021/11/11 01:23:42;;;;;;;355.25;97.28;;;;;;;-0.76;100.00;96319.03;1023264;28;20092;-74
2021/11/11 01:24:12;;;;;;;342.75;98.70;;;;;;;-0.68;100.00;96331.03;1019464;29;20106;-73
2021/11/11 01:24:43;;;;;;;412.05;104.35;;;;;;;-0.77;100.00;96316.63;1018916;28;20155;-74
2021/11/11 01:25:16;;;;;;;397.95;104.47;;;;;;;-0.75;100.00;96319.84;1018964;29;20031;-74
2021/11/11 01:25:46;;;;;;;449.16;114.26;;;;;;;-0.68;100.00;96335.38;1019156;29;20043;-73
2021/11/11 01:26:16;;;;;;;376.23;105.88;;;;;;;-0.73;100.00;96329.00;1019177;28;20035;-74
2021/11/11 01:26:47;;;;;;;422.17;112.27;;;;;;;-0.73;100.00;96336.72;1023415;28;20434;-74
2021/11/11 01:27:17;;;;;;;469.50;112.63;;;;;;;-0.76;100.00;96339.66;1022870;29;20047;-73
2021/11/11 01:27:48;;;;;;;377.70;101.05;;;;;;;-0.83;100.00;96323.28;1018554;29;20039;-73
2021/11/11 01:28:18;;;;;;;333.95;103.18;;;;;;;-0.75;100.00;96330.13;1015142;29;20031;-73
2021/11/11 01:28:49;;;;;;;398.47;105.80;;;;;;;-0.84;100.00;96321.72;1011480;29;20143;-73
2021/11/11 01:29:19;;;;;;;479.43;126.87;;;;;;;-0.75;100.00;96337.88;1015005;29;20028;-75
2021/11/11 01:29:50;;;;;;;415.53;116.83;;;;;;;-0.81;100.00;96331.63;1020362;28;20028;-71
2021/11/11 01:30:20;;;;;;;409.02;113.50;;;;;;;-0.76;100.00;96339.66;1022817;28;20438;-74
2021/11/11 01:30:51;;;;;;;415.48;116.68;;;;;;;-0.84;100.00;96332.00;1015243;29;20377;-73
2021/11/11 01:31:21;;;;;;;401.65;117.25;;;;;;;-0.80;100.00;96333.25;1022449;28;20134;-74
2021/11/11 01:31:52;;;;;;;391.70;117.13;;;;;;;-0.81;100.00;96331.63;1019172;29;20706;-74
2021/11/11 01:32:22;;;;;;;417.40;118.63;;;;;;;-0.76;100.00;96342.22;1011259;29;20052;-74
2021/11/11 01:32:53;;;;;;;437.58;116.47;;;;;;;-0.77;100.00;96340.63;1011199;29;20028;-74
2021/11/11 01:33:23;;;;;;;377.08;103.78;;;;;;;-0.78;100.00;96340.78;1010654;29;20479;-75
2021/11/11 01:33:54;;;;;;;376.92;111.22;;;;;;;-0.75;100.00;96336.09;1015284;28;20400;-73
2021/11/11 01:34:27;;;;;;;367.70;106.67;;;;;;;-0.80;100.00;96325.53;1026965;28;20026;-74
2021/11/11 01:34:58;;;;;;;359.18;105.06;;;;;;;-0.75;100.00;96338.66;1026525;28;20033;-73
2021/11/11 01:35:28;;;;;;;398.10;113.33;;;;;;;-0.80;100.00;96325.53;1018903;29;20740;-74
2021/11/11 01:35:58;;;;;;;377.17;114.53;;;;;;;-0.75;100.00;96325.78;1019094;29;20515;-75
2021/11/11 01:36:29;;;;;;;346.80;107.78;;;;;;;-0.74;100.00;96331.72;1026568;28;20608;-73
2021/11/11 01:36:59;;;;;;;387.35;108.90;;;;;;;-0.95;100.00;96298.94;1018777;29;20463;-73
2021/11/11 01:37:30;;;;;;;450.53;116.13;;;;;;;-0.73;100.00;96333.34;1018815;29;20059;-73
2021/11/11 01:38:01;;;;;;;431.13;114.25;;;;;;;-0.81;100.00;96325.69;1018186;29;20515;-74
2021/11/11 01:38:31;;;;;;;354.40;104.85;;;;;;;-0.77;100.00;96335.47;1012031;29;20028;-75
2021/11/11 01:39:04;;;;;;;411.67;111.63;;;;;;;-0.79;100.00;96329.69;1011149;29;20048;-73
2021/11/11 01:39:34;;;;;;;347.04;97.78;;;;;;;-0.78;100.00;96331.28;1007063;29;20035;-74
2021/11/11 01:40:06;;;;;;;289.40;90.57;;;;;;;-0.82;100.00;96319.75;1012589;29;20044;-75
2021/11/11 01:40:36;;;;;;;347.22;105.82;;;;;;;-0.88;100.00;96314.50;1021601;28;20843;-73
2021/11/11 01:41:07;;;;;;;383.33;104.20;;;;;;;-0.79;100.00;96326.31;1019042;29;20031;-74
2021/11/11 01:41:37;;;;;;;309.92;92.72;;;;;;;-0.88;100.00;96310.13;1022647;28;20031;-74
2021/11/11 01:42:08;;;;;;;457.65;116.15;;;;;;;-0.75;100.00;96325.78;1023247;28;20607;-73
2021/11/11 01:42:46;;;;;;;300.08;93.47;;;;;;;-0.82;100.00;96314.59;1023080;29;20066;-74
2021/11/11 01:43:17;;;;;;;383.16;109.12;;;;;;;-0.77;100.00;96322.59;1014417;29;20032;-72
2021/11/11 01:43:47;;;;;;;382.42;103.90;;;;;;;-0.67;100.00;96342.13;1020564;28;20075;-73
2021/11/11 01:44:18;;;;;;;365.90;105.97;;;;;;;-0.72;100.00;96327.22;1026980;28;20113;-72
2021/11/11 01:44:53;;;;;;;347.50;98.18;;;;;;;-0.75;100.00;96319.84;1026998;28;20045;-74
2021/11/11 01:45:28;;;;;;;273.06;85.72;;;;;;;-0.73;100.00;96318.69;1025543;28;20078;-74
2021/11/11 01:46:00;;;;;;;337.06;105.26;;;;;;;-0.77;100.00;96324.34;1022763;29;20035;-74
2021/11/11 01:46:31;;;;;;;379.28;108.44;;;;;;;-0.70;100.00;96333.00;1022961;29;20055;-73
2021/11/11 01:47:01;;;;;;;369.88;103.35;;;;;;;-0.68;100.00;96335.38;1023535;28;20106;-74
2021/11/11 01:47:32;;;;;;;387.38;106.32;;;;;;;-0.69;100.00;96341.53;1013975;29;20099;-75
2021/11/11 01:48:06;;;;;;;432.80;112.78;;;;;;;-0.75;100.00;96325.78;1019309;29;20035;-72
2021/11/11 01:48:37;;;;;;;452.64;110.24;;;;;;;-0.80;100.00;96322.94;1017925;28;20139;-75
2021/11/11 01:49:07;;;;;;;386.08;102.70;;;;;;;-0.78;100.00;96326.13;1010432;29;20032;-72
2021/11/11 01:49:38;;;;;;;352.40;94.70;;;;;;;-0.69;100.00;96333.78;1002837;29;20078;-75
2021/11/11 01:50:09;;;;;;;472.88;123.88;;;;;;;-0.79;100.00;96319.38;1010686;29;20063;-72
2021/11/11 01:50:40;;;;;;;477.68;120.18;;;;;;;-0.79;100.00;96334.84;1015975;29;20040;-73
2021/11/11 01:51:11;;;;;;;315.92;90.16;;;;;;;-0.79;100.00;96331.47;1022338;29;20043;-74
2021/11/11 01:51:42;;;;;;;410.58;108.53;;;;;;;-0.71;100.00;96332.16;1022269;28;20039;-73
2021/11/11 01:52:14;;;;;;;471.86;115.38;;;;;;;-0.69;100.00;96333.78;1014209;29;20024;-72
2021/11/11 01:52:44;;;;;;;370.90;101.22;;;;;;;-0.68;100.00;96341.34;1014928;29;20050;-72
2021/11/11 01:53:15;;;;;;;521.17;124.68;;;;;;;-0.81;100.00;96316.19;1014316;29;20515;-73
2021/11/11 01:53:46;;;;;;;441.86;114.36;;;;;;;-0.70;100.00;96330.41;1020945;28;20028;-74
2021/11/11 01:54:17;;;;;;;471.88;117.80;;;;;;;-1.05;100.00;96278.59;1026091;28;20073;-74
2021/11/11 01:54:47;;;;;;;362.10;96.32;;;;;;;-0.63;100.00;96339.03;1022519;28;20234;-74
2021/11/11 01:55:18;;;;;;;470.58;115.35;;;;;;;-0.63;100.00;96335.66;1022113;28;20078;-73
2021/11/11 01:55:49;;;;;;;451.90;111.95;;;;;;;-0.68;100.00;96327.66;1026351;28;20088;-72
2021/11/11 01:56:20;;;;;;;520.80;127.40;;;;;;;-0.63;100.00;96335.66;1022195;29;20061;-73
2021/11/11 01:56:50;;;;;;;543.50;124.42;;;;;;;-0.65;100.00;96337.59;1018264;29;20330;-74
2021/11/11 01:57:23;;;;;;;397.50;106.43;;;;;;;-0.63;100.00;96327.94;1018061;29;20031;-73
2021/11/11 01:57:53;;;;;;;401.04;108.12;;;;;;;-0.62;100.00;96330.31;1016549;29;20034;-72
2021/11/11 01:58:24;;;;;;;384.58;99.03;;;;;;;-0.68;100.00;96317.34;1019119;28;20038;-73
2021/11/11 01:58:54;;;;;;;325.83;89.93;;;;;;;-0.58;100.00;96331.56;1024322;28;20039;-73
2021/11/11 01:59:24;;;;;;;283.80;81.55;;;;;;;-0.59;100.00;96324.81;1026270;28;20027;-73
2021/11/11 01:59:55;;;;;;;425.95;103.55;;;;;;;-0.59;100.00;96329.19;1022163;29;20518;-74
2021/11/11 02:00:34;;;;;;;417.10;107.47;;;;;;;-0.60;100.00;96323.22;1022242;28;20035;-74
2021/11/11 02:01:05;;;;;;;438.18;103.54;;;;;;;-0.58;100.00;96336.72;1007063;29;20082;-74
2021/11/11 02:01:35;;;;;;;263.33;79.38;;;;;;;-0.60;100.00;96327.59;1009136;29;20032;-74
2021/11/11 02:02:06;;;;;;;406.35;100.15;;;;;;;-0.66;100.00;96325.72;1011312;29;20448;-73
2021/11/11 02:02:37;;;;;;;429.58;110.38;;;;;;;-0.63;100.00;96327.94;1018059;28;20035;-75
2021/11/11 02:03:08;;;;;;;520.68;118.06;;;;;;;-0.65;100.00;96322.94;1026111;28;20036;-74
2021/11/11 02:03:38;;;;;;;207.57;68.18;;;;;;;-0.64;100.00;96323.75;1022055;29;20042;-73
2021/11/11 02:04:09;;;;;;;220.40;73.40;;;;;;;-0.59;100.00;96327.41;1021720;28;20046;-73
2021/11/11 02:04:39;;;;;;;364.55;91.97;;;;;;;-0.60;100.00;96322.44;1018382;29;20039;-72
2021/11/11 02:05:09;;;;;;;320.00;88.53;;;;;;;-0.71;100.00;96321.88;1018486;29;20046;-74
2021/11/11 02:05:40;;;;;;;328.63;87.93;;;;;;;-0.72;100.00;96325.44;1020672;28;20062;-72
2021/11/11 02:06:11;;;;;;;331.88;85.65;;;;;;;-0.75;100.00;96320.63;1019008;28;20114;-73
2021/11/11 02:06:41;;;;;;;401.67;98.82;;;;;;;-0.70;100.00;96322.69;1018306;29;20664;-75
2021/11/11 02:07:12;;;;;;;364.63;99.22;;;;;;;-0.65;100.00;96325.53;1018225;28;20031;-73
2021/11/11 02:07:42;;;;;;;295.85;87.03;;;;;;;-0.64;100.00;96326.31;1023552;28;20039;-72
2021/11/11 02:08:13;;;;;;;280.33;79.20;;;;;;;-0.67;100.00;96309.47;1022126;29;20034;-73
2021/11/11 02:08:44;;;;;;;477.10;111.20;;;;;;;-0.61;100.00;96326.75;1026216;28;20062;-73
2021/11/11 02:09:15;;;;;;;353.24;96.16;;;;;;;-0.58;100.00;96321.25;1021291;28;20027;-73
2021/11/11 02:09:45;;;;;;;385.70;95.35;;;;;;;-0.67;100.00;96316.34;1018519;29;20028;-75
2021/11/11 02:10:16;;;;;;;278.83;76.78;;;;;;;-0.63;100.00;96313.28;1022234;29;20707;-75
2021/11/11 02:10:47;;;;;;;368.35;91.05;;;;;;;-0.56;100.00;96318.50;1022266;29;20027;-74
2021/11/11 02:11:17;;;;;;;279.05;82.90;;;;;;;-0.57;100.00;96316.88;1021925;28;20039;-74
2021/11/11 02:11:48;;;;;;;371.67;101.18;;;;;;;-0.58;100.00;96312.72;1022472;29;20031;-74
2021/11/11 02:12:18;;;;;;;451.55;109.93;;;;;;;-0.62;100.00;96319.22;1018278;29;20027;-74
2021/11/11 02:12:49;;;;;;;349.05;91.97;;;;;;;-0.60;100.00;96323.22;1018266;29;20036;-73
2021/11/11 02:13:19;;;;;;;356.48;96.82;;;;;;;-0.56;100.00;96323.66;1018317;29;20038;-74
2021/11/11 02:13:50;;;;;;;456.85;112.82;;;;;;;-0.61;100.00;96316.44;1012152;29;20032;-72
2021/11/11 02:14:20;;;;;;;492.17;113.80;;;;;;;-0.63;100.00;96312.47;1018105;29;20030;-74
2021/11/11 02:14:50;;;;;;;427.08;109.13;;;;;;;-0.56;100.00;96326.25;1022481;28;20046;-70
2021/11/11 02:15:21;;;;;;;446.15;110.63;;;;;;;-0.60;100.00;96320.66;1022179;28;20015;-73
2021/11/11 02:15:51;;;;;;;493.70;121.28;;;;;;;-0.64;100.00;96306.50;1015850;29;20666;-73
2021/11/11 02:16:22;;;;;;;428.30;107.90;;;;;;;-0.58;100.00;96320.47;1018303;28;20679;-75
2021/11/11 02:16:52;;;;;;;440.90;110.68;;;;;;;-0.57;100.00;96316.88;1022261;28;20054;-75
2021/11/11 02:17:29;;;;;;;494.83;112.93;;;;;;;-0.57;100.00;96316.88;1022391;28;20019;-76
2021/11/11 02:18:00;;;;;;;465.40;115.44;;;;;;;-0.59;100.00;96319.66;1026437;28;20057;-73